sensor_id;sensor_type;location;lat;lon;timestamp;P1;durP1;ratioP1;P2;durP2;ratioP2
4047;SDS011;2038;51.728;6.674;2024-03-22T11:39:44;51.43;;;25.10;;
4047;SDS011;2038;51.728;6.674;2024-03-22T11:42:11;38.93;;;23.37;;
4047;SDS011;2038;51.728;6.674;2024-03-22T11:44:38;36.23;;;23.40;;
4047;SDS011;2038;51.728;6.674;2024-03-22T11:47:19;37.13;;;24.10;;
4047;SDS011;2038;51.728;6.674;2024-03-22T11:49:45;34.30;;;22.27;;
4047;SDS011;2038;51.728;6.674;2024-03-22T11:52:11;39.27;;;24.17;;
4047;SDS011;2038;51.728;6.674;2024-03-22T11:54:39;38.10;;;24.83;;
4047;SDS011;2038;51.728;6.674;2024-03-22T11:57:05;34.90;;;23.50;;
4047;SDS011;2038;51.728;6.674;2024-03-22T11:59:34;41.10;;;24.90;;
4047;SDS011;2038;51.728;6.674;2024-03-22T12:02:01;38.00;;;24.30;;
4047;SDS011;2038;51.728;6.674;2024-03-22T12:04:30;40.43;;;27.00;;
4047;SDS011;2038;51.728;6.674;2024-03-22T12:06:57;38.87;;;26.47;;
4047;SDS011;2038;51.728;6.674;2024-03-22T12:09:25;40.90;;;26.73;;
4047;SDS011;2038;51.728;6.674;2024-03-22T12:11:51;40.03;;;26.40;;
4047;SDS011;2038;51.728;6.674;2024-03-22T12:14:23;35.60;;;25.17;;
4047;SDS011;2038;51.728;6.674;2024-03-22T12:16:49;37.80;;;24.83;;
4047;SDS011;2038;51.728;6.674;2024-03-22T12:19:16;38.03;;;26.50;;
4047;SDS011;2038;51.728;6.674;2024-03-22T12:21:42;40.13;;;25.97;;
4047;SDS011;2038;51.728;6.674;2024-03-22T12:24:08;39.23;;;26.93;;
4047;SDS011;2038;51.728;6.674;2024-03-22T12:26:35;35.97;;;25.77;;
4047;SDS011;2038;51.728;6.674;2024-03-22T12:29:01;43.47;;;26.10;;
4047;SDS011;2038;51.728;6.674;2024-03-22T12:31:27;41.67;;;26.80;;
4047;SDS011;2038;51.728;6.674;2024-03-22T12:33:54;39.77;;;25.67;;
4047;SDS011;2038;51.728;6.674;2024-03-22T12:36:20;35.93;;;23.93;;
4047;SDS011;2038;51.728;6.674;2024-03-22T12:38:46;35.83;;;24.50;;
4047;SDS011;2038;51.728;6.674;2024-03-22T12:41:13;38.00;;;25.70;;
4047;SDS011;2038;51.728;6.674;2024-03-22T12:43:45;39.70;;;24.37;;
4047;SDS011;2038;51.728;6.674;2024-03-22T12:46:11;38.53;;;24.93;;
4047;SDS011;2038;51.728;6.674;2024-03-22T12:48:37;39.27;;;24.60;;
4047;SDS011;2038;51.728;6.674;2024-03-22T12:51:04;37.93;;;27.37;;
4047;SDS011;2038;51.728;6.674;2024-03-22T12:53:31;41.97;;;27.60;;
4047;SDS011;2038;51.728;6.674;2024-03-22T12:59:20;39.70;;;26.40;;
4047;SDS011;2038;51.728;6.674;2024-03-22T13:01:46;38.17;;;27.13;;
4047;SDS011;2038;51.728;6.674;2024-03-22T13:04:28;37.67;;;24.97;;
4047;SDS011;2038;51.728;6.674;2024-03-22T13:06:54;40.17;;;26.87;;
4047;SDS011;2038;51.728;6.674;2024-03-22T13:09:21;38.03;;;25.37;;
4047;SDS011;2038;51.728;6.674;2024-03-22T13:11:47;42.23;;;26.60;;
4047;SDS011;2038;51.728;6.674;2024-03-22T13:14:14;43.47;;;27.03;;
4047;SDS011;2038;51.728;6.674;2024-03-22T13:16:41;37.43;;;25.40;;
4047;SDS011;2038;51.728;6.674;2024-03-22T13:19:07;40.70;;;27.43;;
4047;SDS011;2038;51.728;6.674;2024-03-22T13:21:37;37.33;;;23.77;;
4047;SDS011;2038;51.728;6.674;2024-03-22T13:24:03;37.43;;;24.97;;
4047;SDS011;2038;51.728;6.674;2024-03-22T13:29:15;36.87;;;27.00;;
4047;SDS011;2038;51.728;6.674;2024-03-22T13:31:41;43.40;;;26.37;;
4047;SDS011;2038;51.728;6.674;2024-03-22T13:34:08;43.40;;;26.20;;
4047;SDS011;2038;51.728;6.674;2024-03-22T13:36:34;37.83;;;26.10;;
4047;SDS011;2038;51.728;6.674;2024-03-22T13:39:02;35.90;;;24.40;;
4047;SDS011;2038;51.728;6.674;2024-03-22T13:41:41;40.70;;;24.40;;
4047;SDS011;2038;51.728;6.674;2024-03-22T13:44:08;33.60;;;25.00;;
4047;SDS011;2038;51.728;6.674;2024-03-22T13:46:34;43.90;;;26.47;;
4047;SDS011;2038;51.728;6.674;2024-03-22T13:49:01;40.43;;;25.57;;
4047;SDS011;2038;51.728;6.674;2024-03-22T13:51:40;37.67;;;27.13;;
4047;SDS011;2038;51.728;6.674;2024-03-22T13:54:06;34.17;;;23.90;;
4047;SDS011;2038;51.728;6.674;2024-03-22T13:56:33;31.20;;;22.13;;
4047;SDS011;2038;51.728;6.674;2024-03-22T13:58:59;32.20;;;20.60;;
4047;SDS011;2038;51.728;6.674;2024-03-22T14:01:37;32.43;;;21.13;;
4047;SDS011;2038;51.728;6.674;2024-03-22T14:04:06;29.73;;;19.70;;
4047;SDS011;2038;51.728;6.674;2024-03-22T14:06:36;28.30;;;19.00;;
4047;SDS011;2038;51.728;6.674;2024-03-22T14:09:03;34.83;;;20.17;;
4047;SDS011;2038;51.728;6.674;2024-03-22T14:11:30;32.97;;;21.07;;
4047;SDS011;2038;51.728;6.674;2024-03-22T14:13:57;33.63;;;20.43;;
4047;SDS011;2038;51.728;6.674;2024-03-22T14:16:23;32.33;;;19.37;;
4047;SDS011;2038;51.728;6.674;2024-03-22T14:18:49;30.27;;;19.50;;
4047;SDS011;2038;51.728;6.674;2024-03-22T14:21:17;26.67;;;19.30;;
4047;SDS011;2038;51.728;6.674;2024-03-22T14:23:50;21.03;;;14.90;;
4047;SDS011;2038;51.728;6.674;2024-03-22T14:26:17;18.33;;;13.10;;
4047;SDS011;2038;51.728;6.674;2024-03-22T14:28:44;23.83;;;13.30;;
4047;SDS011;2038;51.728;6.674;2024-03-22T14:31:12;19.23;;;13.27;;
4047;SDS011;2038;51.728;6.674;2024-03-22T14:33:39;18.00;;;12.30;;
4047;SDS011;2038;51.728;6.674;2024-03-22T14:36:06;21.00;;;13.00;;
4047;SDS011;2038;51.728;6.674;2024-03-22T14:38:33;21.73;;;11.90;;
4047;SDS011;2038;51.728;6.674;2024-03-22T14:41:00;18.17;;;12.80;;
4047;SDS011;2038;51.728;6.674;2024-03-22T14:43:27;17.40;;;12.83;;
4047;SDS011;2038;51.728;6.674;2024-03-22T14:46:00;18.70;;;12.00;;
4047;SDS011;2038;51.728;6.674;2024-03-22T14:48:28;16.37;;;12.73;;
4047;SDS011;2038;51.728;6.674;2024-03-22T14:50:54;16.83;;;12.10;;
4047;SDS011;2038;51.728;6.674;2024-03-22T14:53:20;13.90;;;9.77;;
4047;SDS011;2038;51.728;6.674;2024-03-22T14:58:24;14.97;;;11.07;;
4047;SDS011;2038;51.728;6.674;2024-03-22T15:00:56;12.77;;;9.57;;
4047;SDS011;2038;51.728;6.674;2024-03-22T15:03:25;12.03;;;8.67;;
4047;SDS011;2038;51.728;6.674;2024-03-22T15:05:55;19.70;;;9.67;;
4047;SDS011;2038;51.728;6.674;2024-03-22T15:08:26;13.13;;;9.70;;
4047;SDS011;2038;51.728;6.674;2024-03-22T15:10:53;13.13;;;8.57;;
4047;SDS011;2038;51.728;6.674;2024-03-22T15:13:20;12.03;;;8.63;;
4047;SDS011;2038;51.728;6.674;2024-03-22T15:15:57;12.20;;;8.53;;
4047;SDS011;2038;51.728;6.674;2024-03-22T15:18:28;13.00;;;8.97;;
4047;SDS011;2038;51.728;6.674;2024-03-22T15:20:54;11.50;;;8.67;;
4047;SDS011;2038;51.728;6.674;2024-03-22T15:23:20;13.03;;;9.27;;
4047;SDS011;2038;51.728;6.674;2024-03-22T15:25:47;15.00;;;8.60;;
4047;SDS011;2038;51.728;6.674;2024-03-22T15:28:16;12.17;;;8.00;;
4047;SDS011;2038;51.728;6.674;2024-03-22T15:30:43;12.50;;;8.80;;
4047;SDS011;2038;51.728;6.674;2024-03-22T15:33:16;12.97;;;9.53;;
4047;SDS011;2038;51.728;6.674;2024-03-22T15:35:49;16.63;;;9.03;;
4047;SDS011;2038;51.728;6.674;2024-03-22T15:38:31;13.20;;;10.40;;
4047;SDS011;2038;51.728;6.674;2024-03-22T15:40:57;13.03;;;9.20;;
4047;SDS011;2038;51.728;6.674;2024-03-22T15:43:25;14.90;;;9.90;;
4047;SDS011;2038;51.728;6.674;2024-03-22T15:46:01;16.23;;;9.80;;
4047;SDS011;2038;51.728;6.674;2024-03-22T15:48:43;14.63;;;10.40;;
4047;SDS011;2038;51.728;6.674;2024-03-22T15:51:21;13.80;;;9.60;;
4047;SDS011;2038;51.728;6.674;2024-03-22T15:53:55;13.93;;;9.20;;
4047;SDS011;2038;51.728;6.674;2024-03-22T15:56:30;13.20;;;9.30;;
4047;SDS011;2038;51.728;6.674;2024-03-22T15:58:59;10.50;;;7.33;;
4047;SDS011;2038;51.728;6.674;2024-03-22T16:01:30;11.83;;;8.60;;
4047;SDS011;2038;51.728;6.674;2024-03-22T16:03:57;9.03;;;6.50;;
4047;SDS011;2038;51.728;6.674;2024-03-22T16:06:26;6.50;;;5.70;;
4047;SDS011;2038;51.728;6.674;2024-03-22T16:09:14;7.57;;;6.13;;
4047;SDS011;2038;51.728;6.674;2024-03-22T16:11:55;6.90;;;5.57;;
4047;SDS011;2038;51.728;6.674;2024-03-22T16:14:24;11.60;;;6.90;;
4047;SDS011;2038;51.728;6.674;2024-03-22T16:16:51;9.47;;;6.60;;
4047;SDS011;2038;51.728;6.674;2024-03-22T16:19:24;7.97;;;5.90;;
4047;SDS011;2038;51.728;6.674;2024-03-22T16:21:54;8.70;;;7.03;;
4047;SDS011;2038;51.728;6.674;2024-03-22T16:24:21;8.00;;;6.30;;
4047;SDS011;2038;51.728;6.674;2024-03-22T16:26:55;13.07;;;7.27;;
4047;SDS011;2038;51.728;6.674;2024-03-22T16:29:30;9.10;;;6.67;;
4047;SDS011;2038;51.728;6.674;2024-03-22T16:31:57;11.10;;;7.30;;
4047;SDS011;2038;51.728;6.674;2024-03-22T16:34:24;10.57;;;7.77;;
4047;SDS011;2038;51.728;6.674;2024-03-22T16:36:59;15.07;;;7.73;;
4047;SDS011;2038;51.728;6.674;2024-03-22T16:39:27;20.93;;;9.93;;
4047;SDS011;2038;51.728;6.674;2024-03-22T16:42:00;11.60;;;8.90;;
4047;SDS011;2038;51.728;6.674;2024-03-22T16:44:33;12.73;;;8.90;;
4047;SDS011;2038;51.728;6.674;2024-03-22T16:47:01;11.20;;;8.43;;
4047;SDS011;2038;51.728;6.674;2024-03-22T16:49:27;9.50;;;7.00;;
4047;SDS011;2038;51.728;6.674;2024-03-22T16:51:57;10.27;;;7.20;;
4047;SDS011;2038;51.728;6.674;2024-03-22T16:54:40;11.10;;;6.70;;
4047;SDS011;2038;51.728;6.674;2024-03-22T16:57:09;12.13;;;7.50;;
4047;SDS011;2038;51.728;6.674;2024-03-22T16:59:43;9.23;;;6.77;;
4047;SDS011;2038;51.728;6.674;2024-03-22T17:02:12;14.90;;;8.13;;
4047;SDS011;2038;51.728;6.674;2024-03-22T17:04:46;11.00;;;5.87;;
4047;SDS011;2038;51.728;6.674;2024-03-22T17:07:28;11.50;;;6.77;;
4047;SDS011;2038;51.728;6.674;2024-03-22T17:10:11;11.40;;;6.70;;
4047;SDS011;2038;51.728;6.674;2024-03-22T17:12:46;14.00;;;7.53;;
4047;SDS011;2038;51.728;6.674;2024-03-22T17:15:19;10.10;;;6.00;;
4047;SDS011;2038;51.728;6.674;2024-03-22T17:17:49;14.47;;;7.97;;
4047;SDS011;2038;51.728;6.674;2024-03-22T17:20:30;13.70;;;7.50;;
4047;SDS011;2038;51.728;6.674;2024-03-22T17:22:57;16.67;;;8.23;;
4047;SDS011;2038;51.728;6.674;2024-03-22T17:25:24;13.20;;;7.70;;
4047;SDS011;2038;51.728;6.674;2024-03-22T17:27:54;11.40;;;7.33;;
4047;SDS011;2038;51.728;6.674;2024-03-22T17:30:35;17.00;;;8.97;;
4047;SDS011;2038;51.728;6.674;2024-03-22T17:33:23;13.40;;;8.70;;
4047;SDS011;2038;51.728;6.674;2024-03-22T17:35:53;13.20;;;6.87;;
4047;SDS011;2038;51.728;6.674;2024-03-22T17:38:23;17.27;;;9.00;;
4047;SDS011;2038;51.728;6.674;2024-03-22T17:43:30;19.60;;;9.77;;
4047;SDS011;2038;51.728;6.674;2024-03-22T17:45:57;19.17;;;9.57;;
4047;SDS011;2038;51.728;6.674;2024-03-22T17:48:23;16.53;;;10.27;;
4047;SDS011;2038;51.728;6.674;2024-03-22T17:50:50;15.00;;;9.30;;
4047;SDS011;2038;51.728;6.674;2024-03-22T17:53:17;17.80;;;9.67;;
4047;SDS011;2038;51.728;6.674;2024-03-22T17:59:08;15.63;;;9.13;;
4047;SDS011;2038;51.728;6.674;2024-03-22T18:01:34;18.23;;;9.77;;
4047;SDS011;2038;51.728;6.674;2024-03-22T18:04:03;20.90;;;10.37;;
4047;SDS011;2038;51.728;6.674;2024-03-22T18:10:13;19.37;;;10.23;;
4047;SDS011;2038;51.728;6.674;2024-03-22T18:13:36;23.60;;;11.20;;
4047;SDS011;2038;51.728;6.674;2024-03-22T18:16:04;18.40;;;10.37;;
4047;SDS011;2038;51.728;6.674;2024-03-22T18:18:31;19.00;;;11.60;;
4047;SDS011;2038;51.728;6.674;2024-03-22T18:20:57;21.70;;;11.00;;
4047;SDS011;2038;51.728;6.674;2024-03-22T18:26:56;22.83;;;13.33;;
4047;SDS011;2038;51.728;6.674;2024-03-22T18:29:33;20.83;;;13.53;;
4047;SDS011;2038;51.728;6.674;2024-03-22T18:31:59;22.23;;;12.80;;
4047;SDS011;2038;51.728;6.674;2024-03-22T18:34:28;17.90;;;12.97;;
4047;SDS011;2038;51.728;6.674;2024-03-22T18:36:54;24.77;;;13.37;;
4047;SDS011;2038;51.728;6.674;2024-03-22T18:43:02;29.40;;;15.50;;
4047;SDS011;2038;51.728;6.674;2024-03-22T18:45:29;26.07;;;14.73;;
4047;SDS011;2038;51.728;6.674;2024-03-22T18:47:55;24.47;;;14.80;;
4047;SDS011;2038;51.728;6.674;2024-03-22T18:50:27;25.40;;;17.10;;
4047;SDS011;2038;51.728;6.674;2024-03-22T18:52:54;25.07;;;15.60;;
4047;SDS011;2038;51.728;6.674;2024-03-22T18:55:20;23.73;;;15.27;;
4047;SDS011;2038;51.728;6.674;2024-03-22T18:57:46;31.43;;;16.40;;
4047;SDS011;2038;51.728;6.674;2024-03-22T19:00:13;28.00;;;17.03;;
4047;SDS011;2038;51.728;6.674;2024-03-22T19:02:45;33.50;;;18.47;;
4047;SDS011;2038;51.728;6.674;2024-03-22T19:05:12;29.63;;;18.00;;
4047;SDS011;2038;51.728;6.674;2024-03-22T19:07:38;26.30;;;16.87;;
4047;SDS011;2038;51.728;6.674;2024-03-22T19:10:04;36.50;;;17.63;;
4047;SDS011;2038;51.728;6.674;2024-03-22T19:12:32;25.80;;;15.17;;
4047;SDS011;2038;51.728;6.674;2024-03-22T19:15:10;22.73;;;15.03;;
4047;SDS011;2038;51.728;6.674;2024-03-22T19:21:15;25.37;;;14.37;;
4047;SDS011;2038;51.728;6.674;2024-03-22T19:23:41;23.70;;;14.87;;
4047;SDS011;2038;51.728;6.674;2024-03-22T19:26:07;25.23;;;13.50;;
4047;SDS011;2038;51.728;6.674;2024-03-22T19:28:33;31.33;;;13.70;;
4047;SDS011;2038;51.728;6.674;2024-03-22T19:31:01;24.90;;;13.37;;
4047;SDS011;2038;51.728;6.674;2024-03-22T19:33:28;23.43;;;13.43;;
4047;SDS011;2038;51.728;6.674;2024-03-22T19:36:02;22.23;;;13.00;;
4047;SDS011;2038;51.728;6.674;2024-03-22T19:38:29;24.60;;;14.20;;
4047;SDS011;2038;51.728;6.674;2024-03-22T19:40:55;30.23;;;13.53;;
4047;SDS011;2038;51.728;6.674;2024-03-22T19:43:21;25.00;;;13.10;;
4047;SDS011;2038;51.728;6.674;2024-03-22T19:45:49;25.80;;;13.73;;
4047;SDS011;2038;51.728;6.674;2024-03-22T19:48:15;18.30;;;12.50;;
4047;SDS011;2038;51.728;6.674;2024-03-22T19:50:43;20.27;;;12.03;;
4047;SDS011;2038;51.728;6.674;2024-03-22T19:53:09;25.83;;;11.97;;
4047;SDS011;2038;51.728;6.674;2024-03-22T19:55:36;28.83;;;12.27;;
4047;SDS011;2038;51.728;6.674;2024-03-22T19:58:02;24.67;;;11.87;;
4047;SDS011;2038;51.728;6.674;2024-03-22T20:00:29;24.83;;;12.27;;
4047;SDS011;2038;51.728;6.674;2024-03-22T20:02:55;19.97;;;9.87;;
4047;SDS011;2038;51.728;6.674;2024-03-22T20:05:21;24.73;;;10.37;;
4047;SDS011;2038;51.728;6.674;2024-03-22T20:07:47;27.90;;;12.20;;
4047;SDS011;2038;51.728;6.674;2024-03-22T20:10:14;26.50;;;11.37;;
4047;SDS011;2038;51.728;6.674;2024-03-22T20:12:40;32.60;;;13.43;;
4047;SDS011;2038;51.728;6.674;2024-03-22T20:15:11;32.03;;;16.03;;
4047;SDS011;2038;51.728;6.674;2024-03-22T20:17:38;25.10;;;10.73;;
4047;SDS011;2038;51.728;6.674;2024-03-22T20:20:04;21.00;;;10.23;;
4047;SDS011;2038;51.728;6.674;2024-03-22T20:22:32;23.23;;;11.53;;
4047;SDS011;2038;51.728;6.674;2024-03-22T20:24:58;20.63;;;10.93;;
4047;SDS011;2038;51.728;6.674;2024-03-22T20:27:25;23.37;;;11.00;;
4047;SDS011;2038;51.728;6.674;2024-03-22T20:29:51;23.40;;;11.77;;
4047;SDS011;2038;51.728;6.674;2024-03-22T20:32:24;20.97;;;11.83;;
4047;SDS011;2038;51.728;6.674;2024-03-22T20:34:50;20.77;;;10.37;;
4047;SDS011;2038;51.728;6.674;2024-03-22T20:37:16;22.70;;;10.30;;
